Aérodrome :
LOGIN :

S'inscrire | Disclaimer

   EN    FR    IT 

 










Légende :    VFR   VFR Marginal   IFR   IFR Intensif   IFR Très Intensif
Visi : 
Plafond : 
>= 8 km
>= 3000ft
5 à 8 km
1000 à 3000 ft
1500m à 5 km
500 à 1000 ft
800 à 1500m
200 à 500 ft
< 800m
< 200 ft
Symboles :   Orages  Brouillard  Fortes neiges  Fortes précipitations  Vent > 20 kt
SIGMETs :   Divers  Orages  Givrage  Turbulence  Onde Orograph.  Cendres Volcan.







- Altitude de l'aérodrome : 1416 ft
- Code IATA : ZRH


LSZH - Zurich

DERNIER METAR :
  • 162220Z VRB03KT 8000 FEW014 SCT018 BKN021 01/M01 Q1019 TEMPO 3000 SHRASN

METARs EXPIRÉS :
  • 162150Z VRB03KT 8000 -SHRA FEW014 SCT017 BKN024 01/M01 Q1019 TEMPO 3000 SHRASN
  • 162120Z 24004KT 8000 FEW014 SCT028 BKN040 01/M01 Q1018 TEMPO 3000 SHRASN
  • 162050Z 23005KT 9000 FEW012 SCT028 BKN036 01/M01 Q1018 NOSIG
  • 162020Z 25006KT 9999 FEW012 SCT028 BKN035 01/M01 Q1018 NOSIG
  • 161950Z VRB02KT 9999 FEW012 SCT028 BKN035 01/M01 Q1018 NOSIG

TAF TAF LSZH
Valide du 16 à 21h jusqu'au 18 à 03h UTC


162025Z 1621/1803 VRB03KT 9999 FEW012 SCT028 BKN035 TX02/1715Z TNM01/1705Z
PROB40
TEMPO 1621/1623 3000 -SHRASN BKN010
TEMPO 1621/1706 2500 -SHSN BKN008
TEMPO 1621/1706 1500 SHSN BKN006
PROB30
TEMPO 1706/1801 3000 -SHSN BKN010
PROB40
TEMPO 1711/1717 28008KT
ATIS : +41 43 816 2295 (DEP) +41 43 816 2294 (ARR)
Pas de NOTAMs connus pour ce terrain.



MET'MAP, la Météo Aéronautique d'un coup d'oeil ! - Copyright ORBIFLY Décembre 2007 - Disclaimer

ORBIFLY MET'MAP TEAM :

Programmation & Développement : Alexandra Zaïnal
Conception & Développement : Baudouin d'Aumeries
Co-Programmation & Développement : Marc-Olivier Méhu
Soutien technique & logistique : Manuel Goepfert

Contact : metmap@orbifly.com




SOURCES & CREDITS :

   NOAA